createdAt,value
2019-06-26T00:01:17.156Z,21.00
2019-06-26T00:03:43.834Z,21.10
2019-06-26T00:06:10.425Z,20.90
2019-06-26T00:08:37.194Z,20.80
2019-06-26T00:11:03.939Z,20.80
2019-06-26T00:13:31.741Z,20.60
2019-06-26T00:15:58.367Z,20.70
2019-06-26T00:18:24.962Z,20.70
2019-06-26T00:20:51.647Z,20.70
2019-06-26T00:23:18.248Z,20.60
2019-06-26T00:25:44.927Z,20.60
2019-06-26T00:28:11.705Z,20.60
2019-06-26T00:30:38.275Z,20.40
2019-06-26T00:33:04.813Z,20.40
2019-06-26T00:35:31.382Z,20.50
2019-06-26T00:37:58.046Z,20.70
2019-06-26T00:40:24.630Z,20.70
2019-06-26T00:42:51.255Z,20.70
2019-06-26T00:45:18.045Z,20.80
2019-06-26T00:47:44.696Z,20.80
2019-06-26T00:50:12.187Z,20.70
2019-06-26T00:52:38.970Z,20.70
2019-06-26T00:55:07.134Z,20.80
2019-06-26T00:57:34.012Z,20.80
2019-06-26T01:00:02.493Z,20.80
2019-06-26T01:02:30.958Z,20.80
2019-06-26T01:04:59.399Z,20.80
2019-06-26T01:07:25.981Z,20.80
2019-06-26T01:09:52.646Z,20.60
2019-06-26T01:12:19.209Z,20.30
2019-06-26T01:14:45.872Z,20.40
2019-06-26T01:17:12.391Z,20.50
2019-06-26T01:19:39.023Z,20.50
2019-06-26T01:22:06.609Z,20.40
2019-06-26T01:24:33.548Z,20.20
2019-06-26T01:27:00.346Z,20.10
2019-06-26T01:29:26.925Z,20.10
2019-06-26T01:31:54.659Z,20.20
2019-06-26T01:34:21.213Z,20.40
2019-06-26T01:36:47.850Z,20.40
2019-06-26T01:39:14.449Z,20.20
2019-06-26T01:41:40.996Z,20.00
2019-06-26T01:44:14.833Z,20.20
2019-06-26T01:46:36.031Z,20.10
2019-06-26T01:49:02.771Z,20.20
2019-06-26T01:51:29.307Z,20.20
2019-06-26T01:53:55.908Z,20.20
2019-06-26T01:56:22.665Z,20.30
2019-06-26T01:58:49.335Z,20.20
2019-06-26T02:01:16.077Z,20.10
2019-06-26T02:03:42.622Z,20.10
2019-06-26T02:06:09.384Z,20.30
2019-06-26T02:08:35.942Z,20.10
2019-06-26T02:11:02.916Z,20.10
2019-06-26T02:13:29.477Z,19.80
2019-06-26T02:15:56.126Z,19.80
2019-06-26T02:18:33.980Z,19.70
2019-06-26T02:21:00.642Z,20.00
2019-06-26T02:23:27.203Z,20.00
2019-06-26T02:25:53.891Z,20.10
2019-06-26T02:28:20.417Z,20.00
2019-06-26T02:30:48.475Z,20.10
2019-06-26T02:33:15.048Z,20.10
2019-06-26T02:35:41.772Z,19.90
2019-06-26T02:38:08.328Z,19.80
2019-06-26T02:40:34.875Z,19.90
2019-06-26T02:43:06.476Z,19.80
2019-06-26T02:45:29.995Z,19.80
2019-06-26T02:47:56.566Z,19.90
2019-06-26T02:50:23.211Z,19.90
2019-06-26T02:52:49.857Z,19.90
2019-06-26T02:55:16.504Z,19.70
2019-06-26T02:57:43.194Z,19.70
2019-06-26T03:00:10.057Z,19.60
2019-06-26T03:02:36.916Z,19.50
2019-06-26T03:05:05.259Z,19.40
2019-06-26T03:07:31.919Z,19.60
2019-06-26T03:09:58.673Z,19.70
2019-06-26T03:12:25.273Z,19.80
2019-06-26T03:15:07.502Z,19.70
2019-06-26T03:17:20.186Z,19.60
2019-06-26T03:19:46.720Z,19.50
2019-06-26T03:22:13.410Z,19.50
2019-06-26T03:24:39.990Z,19.60
2019-06-26T03:27:09.004Z,19.70
2019-06-26T03:29:34.882Z,19.60
2019-06-26T03:32:01.471Z,19.70
2019-06-26T03:34:28.063Z,19.80
2019-06-26T03:36:54.617Z,19.80
2019-06-26T03:39:21.164Z,19.70
2019-06-26T03:41:48.300Z,19.50
2019-06-26T03:44:14.839Z,19.30
2019-06-26T03:46:41.485Z,19.50
2019-06-26T03:49:08.158Z,19.70
2019-06-26T03:51:34.718Z,19.80
2019-06-26T03:54:01.289Z,19.60
2019-06-26T03:56:27.822Z,19.60
2019-06-26T03:58:54.373Z,19.60
2019-06-26T04:01:20.943Z,19.60
2019-06-26T04:03:47.470Z,19.70
2019-06-26T04:06:14.004Z,19.90
2019-06-26T04:08:40.644Z,20.00
2019-06-26T04:11:07.186Z,19.90
2019-06-26T04:13:33.715Z,19.90
2019-06-26T04:16:00.268Z,20.00
2019-06-26T04:18:26.793Z,20.10
2019-06-26T04:20:53.363Z,20.20
2019-06-26T04:23:19.899Z,20.40
2019-06-26T04:25:46.457Z,20.40
2019-06-26T04:28:13.051Z,20.50
2019-06-26T04:30:39.616Z,20.60
2019-06-26T04:33:06.350Z,20.60
2019-06-26T04:35:33.021Z,20.60
2019-06-26T04:37:59.592Z,20.40
2019-06-26T04:40:26.117Z,20.40
2019-06-26T04:42:52.673Z,20.50
2019-06-26T04:45:19.819Z,20.50
2019-06-26T04:47:46.383Z,20.60
2019-06-26T04:50:13.360Z,20.80
2019-06-26T04:52:39.931Z,21.00
2019-06-26T04:55:08.367Z,21.00
2019-06-26T04:57:35.050Z,21.10
2019-06-26T05:00:02.388Z,21.10
2019-06-26T05:02:30.139Z,21.10
2019-06-26T05:04:56.727Z,21.00
2019-06-26T05:07:23.372Z,20.90
2019-06-26T05:09:49.924Z,21.00
2019-06-26T05:12:16.550Z,21.00
2019-06-26T05:14:43.116Z,21.10
2019-06-26T05:17:10.050Z,21.10
2019-06-26T05:19:36.602Z,21.20
2019-06-26T05:22:03.446Z,21.30
2019-06-26T05:24:32.360Z,21.30
2019-06-26T05:26:58.981Z,21.30
2019-06-26T05:29:25.658Z,21.50
2019-06-26T05:31:54.612Z,21.70
2019-06-26T05:34:21.474Z,21.80
2019-06-26T05:36:48.076Z,21.90
2019-06-26T05:39:14.599Z,22.00
2019-06-26T05:41:41.146Z,22.00
2019-06-26T05:44:07.703Z,21.90
2019-06-26T05:46:34.240Z,22.00
2019-06-26T05:49:00.767Z,22.10
2019-06-26T05:51:27.429Z,22.30
2019-06-26T05:53:54.095Z,22.30
2019-06-26T05:56:21.863Z,22.30
2019-06-26T05:58:48.390Z,22.20
2019-06-26T06:01:15.259Z,22.30
2019-06-26T06:03:41.753Z,22.40
2019-06-26T06:06:08.306Z,22.40
2019-06-26T06:08:36.220Z,22.60
2019-06-26T06:11:02.951Z,22.60
2019-06-26T06:13:29.558Z,22.70
2019-06-26T06:15:56.212Z,22.70
2019-06-26T06:18:22.714Z,22.80
2019-06-26T06:20:49.265Z,22.80
2019-06-26T06:23:15.838Z,22.80
2019-06-26T06:25:42.524Z,22.90
2019-06-26T06:28:09.212Z,23.00
2019-06-26T06:30:35.953Z,23.20
2019-06-26T06:33:02.887Z,23.30
